Time;durP1;ratioP1;P1;durP2;ratioP2;P2;SDS_P1;SDS_P2;PMS_P1;PMS_P2;Temp;Humidity;BMP_temperature;BMP_pressure;BME280_temperature;BME280_humidity;BME280_pressure;Samples;Min_cycle;Max_cycle;Signal;HPM_P1;HPM_P2
2023/08/21 00:00:51;;;;;;;8.32;7.72;;;;;;;18.32;100.00;95116.00;5059821;28;20132;-85
2023/08/21 00:03:16;;;;;;;11.27;8.57;;;;;;;18.24;100.00;95124.13;5078685;28;20061;-88
2023/08/21 00:05:41;;;;;;;9.20;8.07;;;;;;;18.28;100.00;95128.72;5078846;28;20035;-87
2023/08/21 00:08:07;;;;;;;9.48;8.77;;;;;;;18.25;100.00;95141.47;5076074;28;20083;-86
2023/08/21 00:10:32;;;;;;;8.75;7.90;;;;;;;18.34;100.00;95138.38;5078143;28;20133;-87
2023/08/21 00:12:58;;;;;;;9.68;8.70;;;;;;;18.33;100.00;95142.00;5079459;28;20032;-86
2023/08/21 00:15:23;;;;;;;9.15;7.50;;;;;;;18.31;100.00;95132.75;5061101;28;20012;-86
2023/08/21 00:17:49;;;;;;;8.82;8.13;;;;;;;18.23;100.00;95135.66;5078857;28;20473;-86
2023/08/21 00:20:14;;;;;;;9.60;8.65;;;;;;;18.42;100.00;95129.44;5078071;28;20028;-84
2023/08/21 00:22:40;;;;;;;9.10;8.35;;;;;;;18.35;100.00;95129.50;5078375;28;20027;-84
2023/08/21 00:25:05;;;;;;;11.55;8.98;;;;;;;18.35;100.00;95141.78;5059842;28;20032;-85
2023/08/21 00:27:31;;;;;;;9.02;8.25;;;;;;;18.43;100.00;95138.91;5077976;28;20024;-85
2023/08/21 00:29:58;;;;;;;9.57;8.68;;;;;;;18.23;100.00;95139.06;5082674;28;20024;-85
2023/08/21 00:32:23;;;;;;;9.70;8.82;;;;;;;17.96;100.00;95148.13;5081521;28;20477;-86
2023/08/21 00:34:49;;;;;;;9.10;8.18;;;;;;;17.90;100.00;95159.44;5061899;28;20028;-85
2023/08/21 00:37:15;;;;;;;10.23;8.85;;;;;;;17.71;100.00;95168.22;5062847;28;20020;-85
2023/08/21 00:39:41;;;;;;;9.80;9.05;;;;;;;17.74;100.00;95173.84;5082377;28;20020;-84
2023/08/21 00:42:07;;;;;;;9.93;8.95;;;;;;;17.83;100.00;95167.34;5082313;28;20026;-86
2023/08/21 00:44:32;;;;;;;9.52;8.73;;;;;;;17.74;100.00;95180.91;5082945;28;20101;-85
2023/08/21 00:46:58;;;;;;;11.18;9.10;;;;;;;17.75;100.00;95175.47;5082674;28;20035;-85
2023/08/21 00:49:23;;;;;;;10.65;8.27;;;;;;;17.75;100.00;95175.47;5081084;28;20035;-85
2023/08/21 00:51:50;;;;;;;9.90;9.02;;;;;;;17.66;100.00;95175.91;5082447;28;20107;-84
2023/08/21 00:54:16;;;;;;;10.10;9.20;;;;;;;17.46;100.00;95190.88;5081276;28;20027;-83
2023/08/21 00:56:42;;;;;;;10.50;9.50;;;;;;;17.48;100.00;95207.16;5083128;28;20039;-85
2023/08/21 00:59:07;;;;;;;13.98;9.52;;;;;;;17.57;100.00;95211.19;5082799;28;20028;-85
2023/08/21 01:01:33;;;;;;;12.68;8.95;;;;;;;17.56;100.00;95199.94;5074061;28;20471;-85
2023/08/21 01:03:59;;;;;;;11.23;8.85;;;;;;;17.52;100.00;95196.06;5075403;28;20024;-85
2023/08/21 01:06:24;;;;;;;10.63;9.63;;;;;;;17.56;100.00;95202.56;5082241;28;20024;-85
2023/08/21 01:09:08;;;;;;;9.95;8.98;;;;;;;17.54;100.00;95194.03;5081791;28;20023;-84
2023/08/21 01:11:54;;;;;;;11.05;9.15;;;;;;;17.47;100.00;95206.34;5080607;28;20076;-85
2023/08/21 01:14:29;;;;;;;11.25;9.18;;;;;;;17.35;100.00;95208.81;5081361;28;20024;-83
2023/08/21 01:16:57;;;;;;;12.48;9.50;;;;;;;17.37;100.00;95213.84;5064774;28;20486;-85
2023/08/21 01:19:41;;;;;;;11.13;9.20;;;;;;;17.31;100.00;95212.84;5080633;28;20020;-84
2023/08/21 01:22:07;;;;;;;10.02;9.25;;;;;;;17.31;100.00;95215.47;5082037;28;20270;-84
2023/08/21 01:24:33;;;;;;;10.30;9.20;;;;;;;17.48;100.00;95209.78;5060463;28;20482;-84
2023/08/21 01:26:58;;;;;;;13.38;9.27;;;;;;;17.28;100.00;95218.50;5078159;28;20020;-84
2023/08/21 01:29:24;;;;;;;11.70;9.65;;;;;;;17.27;100.00;95227.34;5082039;28;20039;-80
2023/08/21 01:32:05;;;;;;;10.38;9.38;;;;;;;17.28;100.00;95223.72;5080719;28;20032;-84
2023/08/21 01:34:33;;;;;;;11.05;10.00;;;;;;;17.22;100.00;95226.38;5061036;28;20590;-83
2023/08/21 01:36:59;;;;;;;10.35;8.55;;;;;;;17.32;100.00;95227.56;5056532;28;20093;-84
2023/08/21 01:39:25;;;;;;;11.48;8.98;;;;;;;17.31;100.00;95207.63;5063555;28;20518;-86
2023/08/21 01:41:50;;;;;;;10.50;8.93;;;;;;;17.22;100.00;95219.31;5080025;28;20033;-83
2023/08/21 01:44:16;;;;;;;12.35;8.98;;;;;;;17.25;100.00;95224.16;5060638;28;20032;-85
2023/08/21 01:46:41;;;;;;;10.55;9.60;;;;;;;17.24;100.00;95222.53;5072942;28;20039;-85
2023/08/21 01:49:06;;;;;;;10.05;9.05;;;;;;;17.23;100.00;95236.66;5063187;28;20118;-85
2023/08/21 01:51:32;;;;;;;11.05;9.98;;;;;;;17.21;100.00;95224.78;5063659;28;20024;-85
2023/08/21 01:53:57;;;;;;;10.02;9.00;;;;;;;17.36;100.00;95225.34;5081627;28;20071;-84
2023/08/21 01:56:23;;;;;;;10.25;9.18;;;;;;;17.39;100.00;95215.25;5060656;28;20406;-87
2023/08/21 01:58:48;;;;;;;10.15;9.25;;;;;;;17.40;100.00;95205.59;5080039;28;20028;-87
2023/08/21 02:01:14;;;;;;;10.20;9.00;;;;;;;17.30;100.00;95234.81;5080716;28;20425;-86
2023/08/21 02:03:40;;;;;;;10.00;9.18;;;;;;;17.32;100.00;95224.94;5043367;28;20110;-86
2023/08/21 02:06:06;;;;;;;10.30;9.48;;;;;;;17.27;100.00;95219.50;5077489;28;20054;-85
2023/08/21 02:08:34;;;;;;;12.57;9.98;;;;;;;17.27;100.00;95214.25;5062860;28;20035;-84
2023/08/21 02:11:00;;;;;;;11.35;10.13;;;;;;;17.22;100.00;95221.13;5063282;28;20131;-85
2023/08/21 02:13:25;;;;;;;15.50;10.15;;;;;;;17.19;100.00;95219.72;5080722;28;20537;-84
2023/08/21 02:15:51;;;;;;;12.85;9.75;;;;;;;17.23;100.00;95213.09;5058885;28;20513;-85
2023/08/21 02:18:16;;;;;;;10.07;9.15;;;;;;;17.02;100.00;95215.94;5076047;28;20016;-86
2023/08/21 02:20:42;;;;;;;10.95;9.65;;;;;;;16.89;100.00;95242.09;5079622;28;20028;-87
2023/08/21 02:23:07;;;;;;;10.75;9.32;;;;;;;17.03;100.00;95241.09;5081768;28;20122;-87
2023/08/21 02:25:33;;;;;;;10.57;9.52;;;;;;;17.07;100.00;95224.00;5080022;28;20024;-86
2023/08/21 02:27:58;;;;;;;11.27;10.25;;;;;;;17.03;100.00;95224.59;5079791;28;20120;-86
2023/08/21 02:30:25;;;;;;;11.45;10.52;;;;;;;17.02;100.00;95226.41;5062384;28;20120;-84
2023/08/21 02:32:54;;;;;;;11.10;9.90;;;;;;;16.99;100.00;95228.59;5079733;28;20473;-87
2023/08/21 02:35:22;;;;;;;12.02;9.48;;;;;;;17.05;100.00;95217.34;5080122;28;20028;-86
2023/08/21 02:37:47;;;;;;;10.33;9.43;;;;;;;16.96;100.00;95231.63;5059301;28;20032;-86
2023/08/21 02:40:13;;;;;;;10.63;9.68;;;;;;;16.76;100.00;95235.06;5075157;28;20028;-85
2023/08/21 02:42:38;;;;;;;13.63;9.75;;;;;;;16.76;100.00;95257.84;5065074;28;20035;-86
2023/08/21 02:45:08;;;;;;;11.63;9.93;;;;;;;16.68;100.00;95264.06;5063579;28;20028;-87
2023/08/21 02:47:40;;;;;;;10.90;9.85;;;;;;;16.64;100.00;95273.31;5058961;28;20112;-86
2023/08/21 02:50:06;;;;;;;10.77;9.70;;;;;;;16.76;100.00;95265.69;5070623;28;20020;-86
2023/08/21 02:52:33;;;;;;;11.82;10.20;;;;;;;16.58;100.00;95268.88;5063010;28;20603;-83
2023/08/21 02:54:59;;;;;;;12.18;10.27;;;;;;;16.55;100.00;95278.91;5079282;28;20045;-86
2023/08/21 02:57:24;;;;;;;12.73;10.60;;;;;;;16.42;100.00;95297.16;5079966;28;20028;-85
2023/08/21 02:59:50;;;;;;;10.57;9.68;;;;;;;16.35;100.00;95305.81;5058276;28;20024;-84
2023/08/21 03:02:15;;;;;;;11.45;10.40;;;;;;;16.37;100.00;95318.69;5059459;28;20046;-86
2023/08/21 03:04:41;;;;;;;11.60;10.48;;;;;;;16.45;100.00;95315.88;5078447;28;20032;-85
2023/08/21 03:07:06;;;;;;;12.90;10.73;;;;;;;16.36;100.00;95306.63;5079494;28;20020;-86
2023/08/21 03:09:32;;;;;;;11.32;10.48;;;;;;;16.25;100.00;95322.84;5062395;28;20043;-84
2023/08/21 03:11:57;;;;;;;10.88;10.07;;;;;;;16.19;100.00;95332.28;5078377;28;20040;-85
2023/08/21 03:14:26;;;;;;;10.60;9.60;;;;;;;16.26;100.00;95333.13;5059638;28;20071;-86
2023/08/21 03:16:51;;;;;;;13.45;10.73;;;;;;;16.36;100.00;95335.38;5076094;28;21082;-86
2023/08/21 03:19:17;;;;;;;13.48;10.68;;;;;;;16.39;100.00;95329.75;5079827;28;20111;-88
2023/08/21 03:21:42;;;;;;;13.55;10.23;;;;;;;16.40;100.00;95330.56;5077719;28;20073;-84
2023/08/21 03:24:09;;;;;;;10.82;9.93;;;;;;;16.34;100.00;95327.72;5059160;28;20036;-87
2023/08/21 03:26:34;;;;;;;13.35;10.10;;;;;;;16.61;100.00;95317.34;5052801;28;20032;-83
2023/08/21 03:29:00;;;;;;;12.13;10.15;;;;;;;16.53;100.00;95294.81;5079264;28;20035;-87
2023/08/21 03:31:25;;;;;;;11.75;10.25;;;;;;;16.47;100.00;95313.88;5059698;28;20036;-86
2023/08/21 03:33:52;;;;;;;11.25;10.15;;;;;;;16.32;100.00;95323.69;5076515;28;20583;-83
2023/08/21 03:36:19;;;;;;;11.63;10.45;;;;;;;16.23;100.00;95345.78;5081024;28;20070;-83
2023/08/21 03:38:46;;;;;;;12.65;11.40;;;;;;;16.24;100.00;95350.84;5079041;28;20024;-86
2023/08/21 03:41:11;;;;;;;11.15;10.32;;;;;;;16.27;100.00;95337.38;5080450;28;20486;-84
2023/08/21 03:43:37;;;;;;;11.90;10.75;;;;;;;16.26;100.00;95340.97;5078964;28;20038;-85
2023/08/21 03:46:03;;;;;;;12.68;11.45;;;;;;;16.18;100.00;95353.41;5079735;28;20034;-82
2023/08/21 03:48:28;;;;;;;12.45;10.32;;;;;;;16.26;100.00;95343.59;5075027;28;20036;-85
2023/08/21 03:50:53;;;;;;;11.98;10.93;;;;;;;16.31;100.00;95341.19;5087702;28;20028;-84
2023/08/21 03:53:19;;;;;;;12.68;10.98;;;;;;;16.23;100.00;95340.56;5060444;28;20032;-84
2023/08/21 03:55:44;;;;;;;15.50;10.95;;;;;;;16.22;100.00;95324.06;5078179;28;20535;-83
2023/08/21 03:58:10;;;;;;;12.35;11.25;;;;;;;16.38;100.00;95330.75;5080273;28;20024;-84
2023/08/21 04:00:35;;;;;;;11.52;10.60;;;;;;;16.40;100.00;95331.38;5078408;28;20115;-82
2023/08/21 04:03:00;;;;;;;11.20;10.23;;;;;;;16.59;100.00;95320.19;5078877;28;20032;-81
2023/08/21 04:05:29;;;;;;;13.60;10.05;;;;;;;16.78;100.00;95305.50;5082406;28;20023;-83
2023/08/21 04:07:55;;;;;;;12.73;9.93;;;;;;;16.81;100.00;95292.03;5082239;28;20139;-85
2023/08/21 04:10:21;;;;;;;10.95;10.15;;;;;;;16.89;100.00;95289.19;5082967;28;20114;-86
2023/08/21 04:12:46;;;;;;;10.98;9.90;;;;;;;16.92;100.00;95277.56;5065484;28;20031;-86
2023/08/21 04:15:12;;;;;;;14.18;10.73;;;;;;;16.92;100.00;95286.19;5068357;28;20024;-87
2023/08/21 04:17:37;;;;;;;11.30;10.10;;;;;;;17.13;100.00;95275.53;5055748;28;20020;-86
2023/08/21 04:20:03;;;;;;;13.48;9.40;;;;;;;17.35;100.00;95257.75;5078184;28;20034;-87
2023/08/21 04:22:28;;;;;;;11.05;9.85;;;;;;;17.35;100.00;95263.00;5082189;28;20054;-85
2023/08/21 04:24:53;;;;;;;18.27;9.45;;;;;;;17.47;100.00;95257.94;5082242;28;20394;-86
2023/08/21 04:27:19;;;;;;;11.50;10.05;;;;;;;17.71;100.00;95246.81;5063729;28;20118;-86
2023/08/21 04:29:44;;;;;;;13.82;9.32;;;;;;;17.78;100.00;95240.56;5082371;28;20028;-85
2023/08/21 04:32:10;;;;;;;12.88;9.25;;;;;;;17.90;100.00;95225.78;5078881;28;20020;-85
2023/08/21 04:34:35;;;;;;;12.07;8.55;;;;;;;18.25;100.00;95213.06;5054424;28;20031;-85
2023/08/21 04:37:01;;;;;;;11.40;8.85;;;;;;;18.55;100.00;95207.25;5082282;28;20458;-81
2023/08/21 04:39:26;;;;;;;10.43;7.90;;;;;;;19.58;100.00;95168.91;5082122;28;20032;-82
2023/08/21 04:41:51;;;;;;;14.73;7.10;;;;;;;20.59;100.00;95148.66;5083376;28;20043;-83
2023/08/21 04:44:17;;;;;;;6.80;6.15;;;;;;;21.27;100.00;95134.94;5061503;28;20028;-82
2023/08/21 04:46:43;;;;;;;9.27;6.55;;;;;;;21.54;100.00;95128.88;5073098;28;20031;-82
2023/08/21 04:49:08;;;;;;;7.75;6.40;;;;;;;22.39;100.00;95125.44;5082059;28;20482;-84
2023/08/21 04:51:34;;;;;;;6.97;6.32;;;;;;;22.97;100.00;95120.53;5081332;28;20409;-83
2023/08/21 04:54:00;;;;;;;10.00;5.88;;;;;;;23.58;100.00;95118.72;5063824;28;20027;-83
2023/08/21 04:56:26;;;;;;;9.43;6.03;;;;;;;24.00;100.00;95122.34;5067721;28;20501;-84
2023/08/21 04:58:52;;;;;;;8.43;5.80;;;;;;;24.59;100.00;95128.44;5061694;28;20036;-85
2023/08/21 05:01:17;;;;;;;11.50;6.25;;;;;;;24.95;99.42;95123.41;5063304;28;20541;-84
2023/08/21 05:03:43;;;;;;;6.03;5.47;;;;;;;25.07;98.58;95124.84;5064591;28;20034;-84
2023/08/21 05:06:08;;;;;;;7.00;6.50;;;;;;;25.73;95.84;95127.03;5081242;28;20051;-85
2023/08/21 05:08:34;;;;;;;7.68;5.60;;;;;;;25.73;96.26;95127.03;5081421;28;20028;-84
2023/08/21 05:11:00;;;;;;;6.53;6.03;;;;;;;26.07;95.06;95128.97;5081669;28;20048;-84
2023/08/21 05:13:26;;;;;;;6.88;5.32;;;;;;;26.71;87.87;95134.63;5080798;28;20032;-85
2023/08/21 05:15:56;;;;;;;5.95;5.40;;;;;;;26.67;89.24;95133.59;5080457;28;20465;-85
2023/08/21 05:18:22;;;;;;;6.57;5.15;;;;;;;26.88;87.11;95138.91;5081174;28;20027;-85
2023/08/21 05:20:48;;;;;;;10.73;4.88;;;;;;;28.13;80.47;95134.25;5081517;28;20520;-86
2023/08/21 05:23:14;;;;;;;5.33;4.93;;;;;;;28.00;81.25;95137.53;5081217;28;20139;-85
2023/08/21 05:25:40;;;;;;;5.43;4.97;;;;;;;27.90;81.14;95141.03;5080844;28;20119;-85
2023/08/21 05:28:06;;;;;;;5.75;5.25;;;;;;;28.64;76.26;95138.16;5083305;28;20917;-86
2023/08/21 05:30:31;;;;;;;6.07;4.60;;;;;;;29.44;74.57;95146.56;5081569;28;20092;-86
2023/08/21 05:32:58;;;;;;;5.60;5.10;;;;;;;29.98;71.25;95145.41;5082073;28;20895;-84
2023/08/21 05:35:24;;;;;;;7.65;5.22;;;;;;;29.91;71.15;95147.63;5079275;28;20503;-85
2023/08/21 05:37:49;;;;;;;6.50;5.73;;;;;;;30.33;67.29;95152.94;5079978;28;20133;-85
2023/08/21 05:40:14;;;;;;;5.72;5.13;;;;;;;30.86;66.36;95142.00;5079250;28;20361;-85
2023/08/21 05:42:40;;;;;;;5.85;4.88;;;;;;;32.21;61.15;95140.50;5075073;28;20553;-85
2023/08/21 05:45:06;;;;;;;8.32;4.88;;;;;;;32.46;59.98;95144.53;5077750;28;20034;-86
2023/08/21 05:47:32;;;;;;;7.90;5.43;;;;;;;32.50;55.55;95140.91;5082314;28;20024;-87
2023/08/21 05:49:57;;;;;;;5.95;5.50;;;;;;;33.08;56.07;95142.75;5083053;28;20032;-86
2023/08/21 05:52:23;;;;;;;5.50;5.07;;;;;;;32.79;56.42;95149.38;5081927;28;20046;-86
2023/08/21 05:54:48;;;;;;;5.45;4.88;;;;;;;33.08;56.57;95148.94;5063674;28;20111;-86
2023/08/21 05:57:14;;;;;;;7.30;4.78;;;;;;;33.68;53.68;95146.56;5069273;28;20042;-86
2023/08/21 05:59:47;;;;;;;5.72;4.78;;;;;;;33.96;53.18;95149.03;5071326;28;20038;-83
2023/08/21 06:02:13;;;;;;;5.00;4.60;;;;;;;33.75;52.69;95146.09;5058190;28;20042;-84
2023/08/21 06:04:42;;;;;;;6.95;4.82;;;;;;;34.37;50.33;95144.84;5077943;28;20106;-83
2023/08/21 06:07:08;;;;;;;5.15;4.80;;;;;;;34.68;48.27;95144.69;5068616;28;20043;-84
2023/08/21 06:09:36;;;;;;;5.97;4.50;;;;;;;35.09;47.25;95140.69;5080243;28;20024;-84
2023/08/21 06:12:02;;;;;;;4.63;3.92;;;;;;;35.27;46.16;95147.66;5053711;28;20059;-85
2023/08/21 06:14:30;;;;;;;4.93;4.53;;;;;;;35.03;46.13;95148.16;5078732;28;20111;-83
2023/08/21 06:28:39;;;;;;;7.55;6.43;;;;;;;34.78;45.92;95151.66;5083409;27;20397;-87
2023/08/21 06:31:07;;;;;;;6.97;6.15;;;;;;;32.42;56.82;95159.63;5068099;28;20061;-86
2023/08/21 06:33:33;;;;;;;7.45;6.25;;;;;;;31.85;57.90;95160.00;5078265;28;20020;-87
2023/08/21 06:35:58;;;;;;;7.00;6.32;;;;;;;30.95;63.31;95158.97;5078473;28;20554;-84
2023/08/21 06:38:24;;;;;;;6.13;5.63;;;;;;;31.10;61.94;95156.06;5078966;28;20068;-87
2023/08/21 06:40:50;;;;;;;7.88;5.85;;;;;;;30.41;65.04;95154.97;5078648;28;20602;-85
2023/08/21 06:43:16;;;;;;;14.50;6.07;;;;;;;31.16;62.96;95157.56;5077316;28;20100;-89
2023/08/21 06:45:42;;;;;;;6.25;5.25;;;;;;;30.92;63.13;95164.91;5079682;28;20139;-87
2023/08/21 06:48:07;;;;;;;5.35;4.80;;;;;;;31.16;62.48;95158.34;5076290;28;21129;-87
2023/08/21 06:50:33;;;;;;;4.88;4.40;;;;;;;32.79;56.69;95154.75;5079878;28;20024;-86
2023/08/21 06:52:58;;;;;;;4.60;4.00;;;;;;;35.68;47.81;95152.44;5062479;28;20035;-88
2023/08/21 06:55:24;;;;;;;5.47;4.47;;;;;;;35.60;46.16;95164.06;5079224;28;20024;-87
2023/08/21 06:57:49;;;;;;;6.10;4.03;;;;;;;34.71;49.03;95160.22;5061182;28;20056;-87
2023/08/21 07:00:15;;;;;;;10.20;4.27;;;;;;;36.45;42.70;95160.09;5077562;28;20032;-84
2023/08/21 07:02:40;;;;;;;4.77;4.37;;;;;;;37.31;41.93;95154.75;5077522;28;20043;-87
2023/08/21 07:05:07;;;;;;;10.53;4.17;;;;;;;38.20;39.92;95160.38;5075388;28;20111;-88
2023/08/21 07:07:33;;;;;;;4.60;4.20;;;;;;;38.81;37.30;95164.56;5076602;28;20024;-86
2023/08/21 07:09:58;;;;;;;6.90;4.10;;;;;;;38.76;37.18;95158.56;5074660;28;20052;-88
2023/08/21 07:12:23;;;;;;;5.30;4.13;;;;;;;38.01;37.54;95171.00;5077343;28;20020;-86
2023/08/21 07:14:49;;;;;;;9.20;4.37;;;;;;;38.34;38.28;95158.09;5076866;28;20036;-85
2023/08/21 07:17:14;;;;;;;4.43;4.13;;;;;;;38.91;37.12;95163.28;5073223;28;20561;-89
2023/08/21 07:19:40;;;;;;;5.03;4.37;;;;;;;38.49;36.87;95165.53;5074044;28;20028;-88
2023/08/21 07:22:05;;;;;;;7.53;4.83;;;;;;;38.30;37.74;95152.59;5075371;28;20514;-84
2023/08/21 07:24:30;;;;;;;6.47;5.13;;;;;;;37.75;36.69;95155.88;5076264;28;20058;-89
2023/08/21 07:26:56;;;;;;;7.68;5.20;;;;;;;36.17;40.54;95150.94;5076103;28;20052;-88
2023/08/21 07:29:21;;;;;;;6.45;5.50;;;;;;;33.85;46.54;95152.00;5061362;28;20025;-88
2023/08/21 07:31:47;;;;;;;9.80;6.05;;;;;;;33.53;48.68;95146.97;5060188;28;20021;-85
2023/08/21 07:34:12;;;;;;;7.32;6.07;;;;;;;32.60;52.36;95148.75;5058625;28;20035;-87
2023/08/21 07:36:37;;;;;;;5.93;5.35;;;;;;;32.59;52.45;95147.16;5064139;28;20116;-83
2023/08/21 07:39:03;;;;;;;7.22;5.18;;;;;;;32.86;51.01;95146.25;5046837;28;20516;-85
2023/08/21 07:41:29;;;;;;;7.95;5.55;;;;;;;32.52;54.93;95146.00;5048704;28;20400;-86
2023/08/21 07:43:54;;;;;;;16.15;7.38;;;;;;;32.69;55.01;95151.50;5063389;28;20028;-88
2023/08/21 07:46:20;;;;;;;6.65;5.93;;;;;;;32.63;54.65;95147.34;5064072;28;20032;-86
2023/08/21 07:48:45;;;;;;;5.85;5.32;;;;;;;32.62;52.80;95146.59;5063327;28;20513;-87
2023/08/21 07:51:11;;;;;;;10.88;9.52;;;;;;;32.44;54.58;95142.13;5064612;28;20020;-86
2023/08/21 07:53:36;;;;;;;7.38;5.78;;;;;;;33.17;52.79;95146.34;5066800;28;20047;-91
2023/08/21 07:56:06;;;;;;;7.43;5.30;;;;;;;32.11;54.10;95143.44;5064116;28;20071;-90
2023/08/21 07:58:32;;;;;;;6.82;5.88;;;;;;;32.42;53.31;95144.34;5063334;28;20028;-88
2023/08/21 08:00:57;;;;;;;6.32;5.70;;;;;;;32.42;52.53;95136.28;5063957;28;20038;-88
2023/08/21 08:03:23;;;;;;;6.28;5.43;;;;;;;32.48;54.56;95134.28;5046395;28;20028;-85
2023/08/21 08:05:48;;;;;;;5.93;5.47;;;;;;;32.92;54.46;95145.03;5063091;28;20017;-86
2023/08/21 08:08:17;;;;;;;5.90;5.22;;;;;;;32.81;52.82;95136.47;5064114;28;20039;-87
2023/08/21 08:10:42;;;;;;;6.05;5.47;;;;;;;32.70;53.34;95137.00;5063359;28;20888;-83
2023/08/21 08:13:08;;;;;;;5.53;5.13;;;;;;;33.14;54.00;95126.22;5061889;28;20028;-86
2023/08/21 08:15:34;;;;;;;5.93;5.40;;;;;;;32.77;53.22;95129.31;5047536;28;20055;-88
2023/08/21 08:18:01;;;;;;;7.97;5.72;;;;;;;33.21;52.99;95131.16;5061916;28;20067;-85
2023/08/21 08:20:26;;;;;;;5.15;4.68;;;;;;;33.21;51.59;95126.59;5052906;28;20028;-90
2023/08/21 08:22:51;;;;;;;6.57;5.03;;;;;;;33.30;53.08;95126.63;5060948;28;20503;-87
2023/08/21 08:25:17;;;;;;;6.57;5.18;;;;;;;33.22;50.30;95119.31;5063749;28;20027;-85
2023/08/21 08:27:43;;;;;;;9.32;5.15;;;;;;;33.35;51.62;95118.44;5064265;28;20037;-89
2023/08/21 08:30:09;;;;;;;9.60;5.50;;;;;;;33.60;49.83;95112.41;5064361;28;20374;-89
2023/08/21 08:32:35;;;;;;;7.03;5.15;;;;;;;33.28;50.68;95105.44;5064357;28;20078;-91
2023/08/21 08:35:00;;;;;;;6.20;5.60;;;;;;;33.66;52.20;95111.16;5062718;28;20082;-86
2023/08/21 08:37:26;;;;;;;7.32;4.90;;;;;;;33.44;51.82;95108.50;5066935;28;20036;-90
2023/08/21 08:39:51;;;;;;;5.95;5.45;;;;;;;33.52;49.68;95104.28;5062937;28;20501;-88
2023/08/21 08:42:16;;;;;;;8.90;5.00;;;;;;;33.37;48.86;95102.78;5062962;28;20025;-85
2023/08/21 08:44:43;;;;;;;7.25;5.10;;;;;;;33.38;49.79;95101.69;5066385;28;20029;-92
2023/08/21 08:47:10;;;;;;;8.02;5.30;;;;;;;33.42;49.57;95107.25;5070825;28;20031;-82
2023/08/21 08:49:35;;;;;;;9.63;5.03;;;;;;;33.63;49.96;95101.03;5066219;28;20027;-90
2023/08/21 08:52:01;;;;;;;5.88;4.65;;;;;;;33.30;49.41;95097.06;5061851;28;20016;-87
2023/08/21 08:54:27;;;;;;;5.53;5.03;;;;;;;32.93;47.76;95084.06;5064950;28;20029;-91
2023/08/21 08:56:53;;;;;;;8.55;5.00;;;;;;;32.78;47.21;95091.41;5065753;28;20036;-93
2023/08/21 08:59:18;;;;;;;5.72;5.22;;;;;;;33.09;49.52;95087.97;5046957;28;20021;-83
2023/08/21 09:01:44;;;;;;;8.38;5.15;;;;;;;33.56;49.41;95083.72;5060735;28;20028;-85
2023/08/21 09:04:10;;;;;;;6.40;4.82;;;;;;;33.24;46.32;95084.88;5061045;28;20032;-84
2023/08/21 09:06:36;;;;;;;13.85;5.25;;;;;;;33.03;47.69;95081.13;5063299;28;20078;-84
2023/08/21 09:09:01;;;;;;;8.38;5.25;;;;;;;33.43;49.05;95082.72;5056080;28;20501;-87
2023/08/21 09:11:27;;;;;;;6.60;5.18;;;;;;;33.81;47.67;95078.44;5062810;28;20021;-91
2023/08/21 09:13:54;;;;;;;6.38;4.75;;;;;;;33.68;47.79;95078.59;5064165;28;20452;-90
2023/08/21 09:16:24;;;;;;;8.32;4.40;;;;;;;33.77;48.74;95074.81;5063909;28;20116;-87
2023/08/21 09:18:51;;;;;;;5.18;4.68;;;;;;;33.76;46.76;95067.84;5063355;28;20052;-89
2023/08/21 09:21:18;;;;;;;6.80;4.93;;;;;;;33.61;46.04;95067.50;5044211;28;20036;-79
2023/08/21 09:23:45;;;;;;;5.20;4.78;;;;;;;33.53;46.38;95065.53;5055644;28;20036;-87
2023/08/21 09:26:11;;;;;;;6.60;4.68;;;;;;;33.88;47.12;95072.59;5057986;28;20481;-91
2023/08/21 09:28:37;;;;;;;4.65;4.25;;;;;;;33.50;45.79;95064.25;5037276;28;20098;-88
2023/08/21 09:31:03;;;;;;;5.18;4.35;;;;;;;33.57;46.86;95056.53;5036762;28;20049;-90
2023/08/21 09:33:28;;;;;;;6.15;4.70;;;;;;;33.23;47.35;95057.22;5034918;28;20029;-79
2023/08/21 09:35:55;;;;;;;5.13;4.72;;;;;;;33.64;47.62;95056.91;5029354;28;20116;-91
2023/08/21 09:38:21;;;;;;;5.70;4.97;;;;;;;33.75;46.67;95050.13;5042365;28;20040;-91
2023/08/21 09:40:51;;;;;;;6.25;4.72;;;;;;;32.92;46.54;95050.25;5057352;28;20108;-88
2023/08/21 09:43:17;;;;;;;9.52;5.20;;;;;;;33.48;45.88;95044.97;5048761;28;20033;-90
2023/08/21 09:45:55;;;;;;;4.97;4.47;;;;;;;33.86;47.16;95043.34;5050556;28;20021;-85
2023/08/21 09:48:23;;;;;;;19.13;4.63;;;;;;;33.87;45.85;95044.94;5058224;28;20048;-87
2023/08/21 09:50:49;;;;;;;8.80;4.72;;;;;;;32.75;44.69;95043.69;5046575;28;20150;-90
2023/08/21 09:53:15;;;;;;;13.63;4.20;;;;;;;33.49;46.69;95033.09;5044521;28;20102;-89
2023/08/21 09:55:42;;;;;;;18.92;11.07;;;;;;;33.69;47.16;95034.44;5025555;28;20509;-87
2023/08/21 09:58:08;;;;;;;9.30;6.22;;;;;;;33.70;45.23;95031.47;5059470;28;20037;-86
2023/08/21 10:00:37;;;;;;;10.52;7.63;;;;;;;33.82;45.68;95020.06;5061304;28;20421;-81
2023/08/21 10:03:04;;;;;;;17.42;8.25;;;;;;;34.09;46.32;95021.66;5044309;28;20063;-85
2023/08/21 10:05:31;;;;;;;21.05;9.90;;;;;;;34.06;46.06;95017.72;5060650;28;20058;-82
2023/08/21 10:08:00;;;;;;;10.88;7.30;;;;;;;33.94;44.12;95012.16;5044457;28;20081;-87
2023/08/21 10:10:26;;;;;;;34.90;14.35;;;;;;;34.14;46.30;95011.56;5059932;28;20535;-86
2023/08/21 10:12:51;;;;;;;9.50;6.07;;;;;;;33.98;45.09;95009.63;5061114;28;20032;-83
2023/08/21 10:15:17;;;;;;;11.98;7.22;;;;;;;33.97;43.40;95006.19;5060158;28;20028;-86
2023/08/21 10:17:43;;;;;;;4.18;3.60;;;;;;;34.13;40.33;95007.28;5043898;28;20029;-83
2023/08/21 10:20:11;;;;;;;6.30;4.32;;;;;;;34.16;41.14;94998.59;5059669;28;20098;-88
2023/08/21 10:22:38;;;;;;;44.10;22.13;;;;;;;33.97;42.58;94998.09;5059761;28;20080;-83
2023/08/21 10:25:14;;;;;;;7.32;5.28;;;;;;;34.20;42.54;94993.34;5044022;28;20524;-81
2023/08/21 10:27:41;;;;;;;23.13;11.30;;;;;;;33.95;41.30;94999.50;5042194;28;20131;-84
2023/08/21 10:30:14;;;;;;;13.60;7.73;;;;;;;33.81;42.56;94995.06;5060441;28;20058;-82
2023/08/21 10:32:48;;;;;;;10.95;7.07;;;;;;;33.79;41.58;94983.84;5059175;28;20055;-83
2023/08/21 10:35:25;;;;;;;22.92;11.57;;;;;;;33.96;43.96;94979.59;5059786;28;20031;-87
2023/08/21 10:38:11;;;;;;;13.67;7.47;;;;;;;34.01;41.72;94976.72;5043017;28;20031;-81
2023/08/21 10:40:37;;;;;;;4.38;3.97;;;;;;;33.81;41.18;94978.94;5052325;28;20045;-78
2023/08/21 10:43:03;;;;;;;6.28;3.97;;;;;;;33.72;40.22;94980.84;5060926;28;20020;-82
2023/08/21 10:45:29;;;;;;;5.38;3.80;;;;;;;33.85;41.00;94973.72;5050925;28;20450;-81
2023/08/21 10:48:01;;;;;;;8.75;4.20;;;;;;;34.24;41.79;94970.09;5048538;28;20482;-82
2023/08/21 10:50:27;;;;;;;4.95;4.20;;;;;;;33.89;40.24;94967.41;5057384;28;20031;-85
2023/08/21 10:52:53;;;;;;;6.05;3.75;;;;;;;33.70;40.63;94968.81;5056741;28;20033;-88
2023/08/21 10:55:19;;;;;;;5.72;4.40;;;;;;;33.67;41.57;94967.56;5056824;28;20119;-83
2023/08/21 10:57:49;;;;;;;8.00;3.63;;;;;;;33.90;40.80;94965.50;5046084;28;20924;-85
2023/08/21 11:00:20;;;;;;;3.80;3.38;;;;;;;33.77;41.00;94963.78;5040196;28;20044;-81
2023/08/21 11:02:48;;;;;;;5.75;4.28;;;;;;;33.69;40.23;94959.97;5033538;28;20030;-85
2023/08/21 11:05:15;;;;;;;4.20;3.80;;;;;;;33.96;40.10;94969.63;5042090;28;20063;-84
2023/08/21 11:07:48;;;;;;;7.25;4.03;;;;;;;33.88;40.79;94955.06;5048230;28;20031;-86
2023/08/21 11:10:22;;;;;;;4.00;3.50;;;;;;;34.04;39.41;94955.38;5060294;28;20416;-84
2023/08/21 11:12:53;;;;;;;4.38;4.07;;;;;;;34.02;40.89;94959.47;5050809;28;20037;-84
2023/08/21 11:15:19;;;;;;;7.32;4.00;;;;;;;33.94;40.77;94961.06;5041605;28;20506;-84
2023/08/21 11:18:01;;;;;;;6.00;4.25;;;;;;;33.97;42.26;94960.47;5042609;28;20033;-85
2023/08/21 11:20:36;;;;;;;4.88;3.90;;;;;;;33.84;41.08;94966.78;5040648;28;20021;-84
2023/08/21 11:23:08;;;;;;;5.13;3.97;;;;;;;33.70;40.47;94958.06;5023885;28;20041;-81
2023/08/21 11:25:39;;;;;;;5.03;4.50;;;;;;;33.55;41.71;94953.94;5026418;28;20033;-85
2023/08/21 11:28:05;;;;;;;8.95;4.80;;;;;;;33.46;41.02;94949.66;5024237;28;21098;-82
2023/08/21 11:30:32;;;;;;;5.32;4.35;;;;;;;33.55;41.50;94951.25;5058535;28;20029;-83
2023/08/21 11:33:08;;;;;;;5.30;4.30;;;;;;;33.49;41.56;94943.66;5041091;28;20122;-84